Time;durP1;ratioP1;P1;durP2;ratioP2;P2;SDS_P1;SDS_P2;PMS_P1;PMS_P2;Temp;Humidity;BMP_temperature;BMP_pressure;BME280_temperature;BME280_humidity;BME280_pressure;Samples;Min_cycle;Max_cycle;Signal;HPM_P1;HPM_P2
2022/06/16 00:00:56;;;;;;;7.90;4.73;;;17.90;96.20;;;18.31;65.33;95387.47;5065047;28;20485;-52
2022/06/16 00:03:23;;;;;;;5.20;4.50;;;17.90;96.20;;;18.28;65.17;95386.81;5058280;28;20517;-55
2022/06/16 00:05:51;;;;;;;9.93;5.33;;;17.90;96.40;;;18.26;65.05;95383.50;5067710;28;20486;-56
2022/06/16 00:08:19;;;;;;;4.90;4.60;;;17.90;96.40;;;18.23;64.80;95389.19;5065503;28;20459;-54
2022/06/16 00:13:30;;;;;;;7.33;6.43;;;17.80;96.50;;;18.16;66.00;95377.56;5067100;28;20922;-55
2022/06/16 00:15:59;;;;;;;6.03;5.47;;;17.80;96.90;;;18.14;65.23;95382.25;5062666;28;20501;-53
2022/06/16 00:18:26;;;;;;;5.60;5.03;;;17.70;96.70;;;18.12;66.37;95384.22;5056742;28;20459;-55
2022/06/16 00:20:54;;;;;;;6.40;5.27;;;17.80;97.10;;;18.09;65.79;95384.56;5064297;28;20868;-55
2022/06/16 00:23:21;;;;;;;8.10;5.70;;;17.70;97.00;;;18.05;66.15;95386.75;5060647;28;20495;-55
2022/06/16 00:25:48;;;;;;;7.50;5.40;;;17.70;96.90;;;18.00;65.85;95389.13;5062714;28;20480;-55
2022/06/16 00:28:16;;;;;;;9.27;5.83;;;17.60;96.90;;;17.99;66.61;95391.97;5061349;28;20459;-59
2022/06/16 00:30:43;;;;;;;8.50;5.43;;;17.60;97.30;;;17.96;66.56;95386.97;5058722;28;20471;-56
2022/06/16 00:33:12;;;;;;;7.47;5.70;;;17.60;97.20;;;17.94;66.21;95388.97;5060261;28;20456;-56
2022/06/16 00:35:40;;;;;;;6.63;4.63;;;17.60;97.40;;;17.91;66.62;95385.66;5061181;28;20849;-54
2022/06/16 00:38:07;;;;;;;8.03;5.47;;;17.60;97.40;;;17.93;66.26;95388.16;5068652;28;20463;-54
2022/06/16 00:40:34;;;;;;;6.27;5.40;;;17.50;97.50;;;17.92;66.64;95376.69;5066487;28;20490;-55
2022/06/16 00:43:02;;;;;;;6.07;5.60;;;17.50;97.60;;;17.92;66.55;95384.66;5064831;28;20495;-55
2022/06/16 00:45:48;;;;;;;12.13;6.10;;;17.50;97.80;;;17.87;66.53;95376.31;5064982;28;20477;-55
2022/06/16 00:48:21;;;;;;;6.83;4.90;;;17.50;97.50;;;17.81;66.40;95378.84;5066446;28;20456;-54
2022/06/16 00:50:50;;;;;;;5.80;5.30;;;17.50;97.50;;;17.74;66.83;95378.72;5062070;28;20470;-54
2022/06/16 00:53:18;;;;;;;6.33;5.70;;;17.40;97.40;;;17.68;66.94;95385.53;5065350;28;20460;-55
2022/06/16 00:55:45;;;;;;;9.57;5.90;;;17.40;97.80;;;17.65;66.65;95377.91;5062430;28;20463;-56
2022/06/16 00:58:13;;;;;;;6.17;5.67;;;17.30;97.90;;;17.65;67.47;95375.25;5071899;28;20465;-54
2022/06/16 01:00:44;;;;;;;6.83;6.10;;;17.30;98.00;;;17.66;67.25;95381.38;5065158;28;20477;-55
2022/06/16 01:03:11;;;;;;;5.63;5.20;;;17.30;98.00;;;17.66;67.51;95376.91;5067634;28;20475;-54
2022/06/16 01:05:39;;;;;;;9.50;5.80;;;17.30;98.30;;;17.64;66.95;95372.75;5061874;28;20483;-56
2022/06/16 01:08:07;;;;;;;7.07;5.73;;;17.30;97.90;;;17.59;67.45;95367.94;5075809;28;20451;-54
2022/06/16 01:10:40;;;;;;;10.53;5.30;;;17.20;98.00;;;17.55;67.41;95378.09;5070183;28;20479;-54
2022/06/16 01:16:16;;;;;;;7.50;5.43;;;17.20;98.00;;;17.46;67.23;95370.28;5063822;28;20977;-52
2022/06/16 01:18:48;;;;;;;6.80;6.10;;;17.10;98.00;;;17.41;67.70;95373.47;5065498;28;20458;-55
2022/06/16 01:21:23;;;;;;;6.43;5.40;;;17.10;98.30;;;17.41;67.56;95376.13;5067166;28;20559;-55
2022/06/16 01:24:36;;;;;;;10.83;5.87;;;17.10;98.40;;;17.43;68.95;95376.81;5063832;28;20497;-56
2022/06/16 01:28:00;;;;;;;7.73;6.40;;;17.00;98.80;;;17.43;68.87;95363.50;5065289;28;20731;-59
2022/06/16 01:30:32;;;;;;;6.50;5.87;;;17.10;99.10;;;17.42;68.03;95369.00;5065852;28;20479;-56
2022/06/16 01:33:17;;;;;;;6.57;5.33;;;17.10;98.80;;;17.42;68.75;95369.81;5066546;28;20499;-56
2022/06/16 01:35:49;;;;;;;7.30;6.60;;;17.00;98.90;;;17.40;67.72;95358.53;5061573;28;20572;-58
2022/06/16 01:38:20;;;;;;;14.20;7.10;;;17.00;98.60;;;17.37;68.11;95372.16;5068116;28;20832;-55
2022/06/16 01:40:51;;;;;;;9.27;6.70;;;17.00;98.70;;;17.30;68.05;95371.16;5063186;28;20477;-55
2022/06/16 01:43:30;;;;;;;9.63;7.10;;;17.00;98.80;;;17.24;68.42;95371.84;5064856;28;20783;-55
2022/06/16 01:46:01;;;;;;;10.33;6.23;;;16.90;98.90;;;17.19;68.39;95359.06;5060073;28;20471;-57
2022/06/16 01:48:29;;;;;;;19.50;6.63;;;16.90;99.20;;;17.17;68.65;95366.38;5063317;28;21005;-55
2022/06/16 01:51:00;;;;;;;8.80;6.20;;;16.80;99.10;;;17.16;68.54;95357.56;5067178;28;21034;-53
2022/06/16 01:53:31;;;;;;;6.90;5.60;;;16.80;99.30;;;17.16;68.81;95360.22;5066017;28;20462;-51
2022/06/16 01:56:04;;;;;;;5.20;4.80;;;16.80;99.40;;;17.18;68.78;95363.56;5062842;28;20470;-52
2022/06/16 01:58:34;;;;;;;7.37;5.37;;;16.80;99.30;;;17.18;68.25;95363.56;5068749;28;20536;-57
2022/06/16 02:01:07;;;;;;;10.93;5.20;;;16.80;99.20;;;17.20;68.48;95361.56;5064470;28;21133;-55
2022/06/16 02:03:37;;;;;;;5.50;4.97;;;16.90;99.20;;;17.22;68.57;95357.91;5064962;28;20564;-54
2022/06/16 02:06:09;;;;;;;6.10;5.00;;;16.80;99.20;;;17.20;68.88;95358.88;5064298;28;20491;-55
2022/06/16 02:08:40;;;;;;;11.30;4.77;;;16.80;99.40;;;17.20;68.10;95358.06;5066487;28;20452;-55
2022/06/16 02:11:13;;;;;;;4.77;4.47;;;16.80;99.10;;;17.20;68.35;95360.72;5059073;28;20539;-56
2022/06/16 02:13:45;;;;;;;5.20;4.90;;;16.80;99.10;;;17.19;68.50;95359.88;5056763;28;20452;-56
2022/06/16 02:16:16;;;;;;;6.83;5.70;;;16.80;99.20;;;17.19;68.47;95359.88;5056578;28;21050;-53
2022/06/16 02:18:44;;;;;;;9.13;5.53;;;16.80;99.20;;;17.19;68.27;95367.03;5064359;28;20446;-54
2022/06/16 02:21:16;;;;;;;5.40;5.00;;;16.80;99.20;;;17.16;68.33;95373.50;5065717;28;20478;-56
2022/06/16 02:23:44;;;;;;;7.13;5.73;;;16.80;99.30;;;17.14;68.38;95362.22;5063130;28;20510;-56
2022/06/16 02:26:12;;;;;;;13.83;6.70;;;16.80;99.20;;;17.10;68.03;95366.25;5066746;28;20480;-56
2022/06/16 02:28:44;;;;;;;6.47;4.97;;;16.70;99.00;;;17.08;68.12;95368.22;5071492;28;20451;-53
2022/06/16 02:31:43;;;;;;;10.77;6.00;;;16.70;99.00;;;17.06;68.45;95374.72;5064573;28;20490;-55
2022/06/16 02:34:19;;;;;;;7.13;6.43;;;16.70;99.10;;;17.01;67.96;95378.69;5059514;28;20459;-56
2022/06/16 02:37:24;;;;;;;11.70;5.67;;;16.70;99.00;;;16.98;68.07;95372.88;5072849;28;20594;-55
2022/06/16 02:40:18;;;;;;;7.57;5.23;;;16.60;98.90;;;16.95;68.27;95375.88;5064318;28;20876;-56
2022/06/16 02:43:01;;;;;;;6.33;5.73;;;16.60;99.00;;;16.89;67.99;95377.38;5059475;28;20848;-54
2022/06/16 02:45:35;;;;;;;7.20;5.77;;;16.60;99.00;;;16.85;67.80;95376.84;5061640;28;20541;-53
2022/06/16 02:48:08;;;;;;;10.10;5.80;;;16.50;99.00;;;16.83;68.03;95378.00;5063647;28;20455;-52
2022/06/16 02:50:44;;;;;;;6.00;5.50;;;16.50;99.10;;;16.81;68.05;95378.16;5060647;28;20483;-55
2022/06/16 02:53:26;;;;;;;10.80;5.47;;;16.50;99.10;;;16.82;68.00;95378.97;5065908;28;20455;-54
2022/06/16 02:55:57;;;;;;;5.20;4.80;;;16.50;99.20;;;16.81;68.58;95382.66;5065490;28;20473;-53
2022/06/16 02:58:24;;;;;;;18.63;5.23;;;16.50;99.30;;;16.80;68.09;95387.13;5067100;28;20478;-55
2022/06/16 03:00:54;;;;;;;5.27;4.90;;;16.50;99.20;;;16.83;68.22;95384.13;5062445;28;20879;-56
2022/06/16 03:03:25;;;;;;;6.97;5.43;;;16.50;99.30;;;16.83;68.47;95386.78;5061247;28;20479;-56
2022/06/16 03:05:53;;;;;;;18.03;5.90;;;16.50;99.40;;;16.85;68.11;95381.31;5062243;28;20483;-55
2022/06/16 03:08:20;;;;;;;12.30;6.00;;;16.50;99.30;;;16.88;68.41;95382.84;5073562;28;21143;-54
2022/06/16 03:10:54;;;;;;;11.50;6.27;;;16.50;99.40;;;16.91;68.26;95386.00;5066318;28;20481;-52
2022/06/16 03:13:23;;;;;;;6.33;5.73;;;16.60;99.40;;;16.95;68.18;95378.53;5065888;28;21171;-56
2022/06/16 03:15:51;;;;;;;10.37;5.53;;;16.60;99.40;;;16.98;68.31;95389.66;5057136;28;20475;-52
2022/06/16 03:18:20;;;;;;;7.10;5.70;;;16.60;99.30;;;17.01;68.26;95378.69;5066753;28;20466;-54
2022/06/16 03:20:48;;;;;;;6.97;5.90;;;16.60;99.30;;;17.05;67.94;95379.19;5066459;28;20462;-54
2022/06/16 03:23:16;;;;;;;6.00;5.43;;;16.70;99.30;;;17.09;67.93;95391.16;5061500;28;20497;-53
2022/06/16 03:25:44;;;;;;;6.60;5.93;;;16.70;99.30;;;17.12;68.00;95388.16;5060227;28;20502;-55
2022/06/16 03:28:11;;;;;;;13.87;5.90;;;16.70;99.30;;;17.17;68.10;95387.66;5071058;28;20455;-55
2022/06/16 03:30:40;;;;;;;7.70;6.10;;;16.80;99.70;;;17.20;68.38;95385.47;5063138;28;20472;-54
2022/06/16 03:33:08;;;;;;;9.43;5.60;;;16.80;99.40;;;17.25;67.62;95384.16;5062659;28;20479;-56
2022/06/16 03:35:36;;;;;;;7.87;5.07;;;16.80;99.30;;;17.28;67.96;95381.97;5070751;28;21028;-56
2022/06/16 03:38:05;;;;;;;6.30;5.73;;;16.90;99.40;;;17.34;67.50;95385.78;5071121;28;20467;-56
2022/06/16 03:40:32;;;;;;;6.67;5.60;;;16.90;99.20;;;17.38;67.63;95384.44;5066133;28;20664;-53
2022/06/16 03:43:00;;;;;;;15.47;5.87;;;17.00;99.20;;;17.39;67.67;95378.13;5062203;28;20888;-56
2022/06/16 03:45:27;;;;;;;14.90;6.70;;;17.00;99.20;;;17.41;67.98;95378.78;5065050;28;20475;-55
2022/06/16 03:47:55;;;;;;;12.83;5.93;;;17.00;99.30;;;17.43;68.11;95381.28;5065222;28;21002;-54
2022/06/16 03:50:22;;;;;;;11.63;5.93;;;17.00;99.20;;;17.43;67.85;95382.13;5059697;28;20477;-55
2022/06/16 03:52:49;;;;;;;6.47;5.87;;;17.00;99.10;;;17.46;67.64;95387.09;5067950;28;20611;-53
2022/06/16 03:55:18;;;;;;;11.10;6.13;;;17.10;99.10;;;17.49;67.72;95385.91;5067638;28;20475;-51
2022/06/16 03:57:46;;;;;;;12.93;6.93;;;17.10;99.20;;;17.53;67.29;95388.06;5074510;28;20446;-56
2022/06/16 04:00:15;;;;;;;13.13;6.60;;;17.10;99.10;;;17.58;68.01;95384.06;5071169;28;21038;-56
2022/06/16 04:02:43;;;;;;;10.20;6.63;;;17.20;99.30;;;17.61;67.74;95386.41;5065713;28;20533;-55
2022/06/16 04:05:10;;;;;;;7.87;5.60;;;17.20;99.20;;;17.64;67.43;95376.22;5067773;28;20481;-53
2022/06/16 04:07:37;;;;;;;28.93;6.27;;;17.20;99.20;;;17.70;67.84;95378.22;5076972;28;20458;-54
2022/06/16 04:10:06;;;;;;;8.27;6.30;;;17.30;99.20;;;17.78;67.64;95380.00;5069098;28;21095;-56
2022/06/16 04:12:35;;;;;;;5.77;5.27;;;17.40;99.20;;;17.87;67.38;95384.31;5066183;28;20971;-56
2022/06/16 04:15:02;;;;;;;7.80;5.90;;;17.50;99.20;;;17.97;66.91;95383.31;5068946;28;21028;-56
2022/06/16 04:17:29;;;;;;;6.40;5.13;;;17.50;99.00;;;18.06;66.92;95390.25;5068361;28;20444;-57
2022/06/16 04:20:15;;;;;;;14.40;6.30;;;17.60;98.80;;;18.14;66.36;95384.91;5073040;28;20938;-56
2022/06/16 04:22:42;;;;;;;6.10;5.50;;;17.70;98.70;;;18.23;66.45;95383.88;5067830;28;20438;-56
2022/06/16 04:25:13;;;;;;;6.57;5.37;;;17.80;98.50;;;18.32;66.38;95386.47;5070796;28;20471;-55
2022/06/16 04:27:41;;;;;;;6.73;5.60;;;17.90;98.60;;;18.40;66.40;95389.94;5075180;28;20520;-54
2022/06/16 04:30:10;;;;;;;6.63;5.50;;;17.90;98.30;;;18.49;66.05;95390.69;5068226;28;20871;-55
2022/06/16 04:32:37;;;;;;;9.23;6.40;;;18.00;98.10;;;18.56;65.91;95385.47;5065584;28;20720;-56
2022/06/16 04:35:06;;;;;;;7.93;5.80;;;18.10;98.00;;;18.62;65.55;95385.63;5060022;28;20479;-58
2022/06/16 04:37:34;;;;;;;7.07;6.57;;;18.20;97.90;;;18.69;65.23;95387.56;5067660;28;21021;-53
2022/06/16 04:40:01;;;;;;;15.73;8.07;;;18.20;97.70;;;18.72;64.97;95387.22;5067599;28;21072;-57
2022/06/16 04:42:28;;;;;;;8.33;7.00;;;18.30;97.80;;;18.77;65.41;95384.84;5061994;28;20466;-55
2022/06/16 04:44:57;;;;;;;15.50;6.90;;;18.30;97.70;;;18.83;64.41;95384.13;5062158;28;20506;-55
2022/06/16 04:47:25;;;;;;;8.30;6.83;;;18.40;97.50;;;18.86;64.94;95386.47;5063457;28;20523;-54
2022/06/16 04:49:52;;;;;;;12.80;6.87;;;18.40;97.50;;;18.92;64.35;95392.94;5067607;28;21056;-54
2022/06/16 04:52:20;;;;;;;16.43;8.33;;;18.50;97.40;;;18.98;64.19;95393.03;5065460;28;20463;-54
2022/06/16 04:54:47;;;;;;;15.53;7.63;;;18.50;97.40;;;19.02;63.97;95390.84;5063970;28;20471;-54
2022/06/16 04:57:15;;;;;;;8.93;6.03;;;18.60;97.20;;;19.04;64.36;95390.66;5068786;28;21883;-55
2022/06/16 04:59:42;;;;;;;7.90;6.70;;;18.60;97.10;;;19.07;64.11;95390.28;5070252;28;20474;-55
2022/06/16 05:02:11;;;;;;;7.17;6.40;;;18.70;97.10;;;19.08;64.40;95394.63;5068723;28;20442;-57
2022/06/16 05:04:39;;;;;;;7.27;6.40;;;18.70;97.00;;;19.09;63.87;95393.63;5074306;28;20515;-55
2022/06/16 05:07:07;;;;;;;9.33;6.57;;;18.70;96.90;;;19.11;64.17;95392.41;5072127;28;20537;-56
2022/06/16 05:09:34;;;;;;;6.57;5.97;;;18.70;96.90;;;19.15;63.77;95390.25;5074976;28;20474;-59
2022/06/16 05:12:02;;;;;;;7.63;6.90;;;18.70;97.00;;;19.20;63.93;95387.84;5066925;28;20524;-56
2022/06/16 05:14:29;;;;;;;7.37;6.73;;;18.80;97.10;;;19.26;63.97;95392.47;5070029;28;20476;-54
2022/06/16 05:16:56;;;;;;;10.43;6.57;;;18.80;97.00;;;19.32;63.69;95390.94;5066845;28;20989;-55
2022/06/16 05:19:30;;;;;;;9.67;7.10;;;18.90;97.00;;;19.40;63.67;95388.16;5071629;28;21060;-55
2022/06/16 05:21:58;;;;;;;22.23;8.00;;;18.90;96.90;;;19.51;63.66;95395.72;5070290;28;20447;-54
2022/06/16 05:24:25;;;;;;;11.80;7.23;;;19.00;96.90;;;19.67;63.59;95408.09;5075615;28;20490;-55
2022/06/16 05:26:53;;;;;;;13.43;7.17;;;19.10;96.70;;;19.87;63.34;95397.69;5078120;28;20446;-55
2022/06/16 05:29:20;;;;;;;7.87;6.80;;;19.30;96.70;;;20.07;62.50;95391.78;5072446;28;20451;-57
2022/06/16 05:31:47;;;;;;;14.13;7.43;;;19.50;96.40;;;20.29;62.10;95392.66;5066982;28;20474;-54
2022/06/16 05:34:15;;;;;;;8.10;7.40;;;19.70;96.30;;;20.51;61.80;95387.38;5064250;28;20529;-54
2022/06/16 05:36:45;;;;;;;32.97;7.87;;;19.90;95.90;;;20.73;61.49;95402.47;5066039;28;20461;-54
2022/06/16 05:39:13;;;;;;;11.33;7.80;;;20.10;95.70;;;20.95;61.10;95399.78;5066885;28;20446;-54
2022/06/16 05:41:41;;;;;;;11.77;7.30;;;20.30;95.40;;;21.15;60.71;95399.97;5067900;28;21362;-56
2022/06/16 05:44:08;;;;;;;16.73;7.87;;;20.50;95.10;;;21.35;60.07;95402.81;5067917;28;20540;-56
2022/06/16 05:46:36;;;;;;;21.43;7.40;;;20.70;94.70;;;21.53;59.71;95407.69;5069599;28;20478;-55
2022/06/16 05:49:03;;;;;;;11.87;7.33;;;20.90;94.30;;;21.71;59.42;95399.19;5062490;28;20482;-55
2022/06/16 05:51:31;;;;;;;11.00;7.43;;;21.10;94.40;;;21.91;59.28;95403.84;5067086;28;20471;-56
2022/06/16 05:53:59;;;;;;;19.23;7.47;;;21.30;94.10;;;22.09;58.66;95406.81;5068696;28;20451;-54
2022/06/16 05:56:27;;;;;;;7.87;7.17;;;21.50;93.80;;;22.29;58.30;95404.25;5071689;28;20825;-56
2022/06/16 05:58:54;;;;;;;10.20;7.43;;;21.70;93.60;;;22.47;58.11;95398.34;5070688;28;20458;-56
2022/06/16 06:01:21;;;;;;;11.50;9.47;;;21.80;93.20;;;22.64;57.53;95398.81;5072026;28;20474;-55
2022/06/16 06:03:49;;;;;;;12.47;7.30;;;22.00;92.80;;;22.81;57.43;95399.25;5072949;28;21018;-56
2022/06/16 06:06:16;;;;;;;10.13;6.47;;;22.20;92.50;;;22.98;56.58;95398.88;5070349;28;20470;-55
2022/06/16 06:17:02;;;;;;;27.00;15.87;;;22.90;91.80;;;23.70;56.13;95399.97;5071741;28;20471;-57
2022/06/16 06:19:31;;;;;;;17.13;8.47;;;23.10;91.50;;;23.88;55.76;95404.69;5069244;28;20959;-56
2022/06/16 06:22:00;;;;;;;24.20;11.30;;;23.20;91.20;;;24.02;55.14;95399.31;5071974;28;20455;-55
2022/06/16 06:24:29;;;;;;;18.60;9.80;;;23.40;90.90;;;24.13;54.40;95404.81;5074353;28;20994;-55
2022/06/16 06:26:58;;;;;;;15.10;11.10;;;23.50;90.60;;;24.28;54.49;95415.34;5074420;28;20442;-53
2022/06/16 06:29:26;;;;;;;19.80;10.60;;;23.60;90.00;;;24.42;54.03;95410.75;5073310;28;20442;-56
2022/06/16 06:31:53;;;;;;;14.40;10.93;;;23.80;90.00;;;24.56;53.75;95411.50;5066943;28;20454;-56
2022/06/16 06:34:20;;;;;;;29.77;12.00;;;23.90;89.60;;;24.64;53.80;95403.22;5073963;28;20477;-56
2022/06/16 06:36:49;;;;;;;18.73;10.50;;;24.00;89.10;;;24.76;53.21;95408.75;5072666;28;20997;-53
2022/06/16 06:39:16;;;;;;;18.07;10.50;;;24.10;88.90;;;24.92;52.88;95410.09;5073532;28;20490;-56
2022/06/16 06:41:44;;;;;;;18.57;11.27;;;24.20;88.50;;;25.11;53.35;95405.63;5073794;28;20441;-54
2022/06/16 06:44:13;;;;;;;15.80;12.70;;;24.40;88.00;;;25.29;52.34;95404.09;5068111;28;20490;-53
2022/06/16 06:46:40;;;;;;;19.17;12.47;;;24.60;87.40;;;25.43;52.29;95405.63;5073545;28;20943;-55
2022/06/16 06:49:07;;;;;;;21.20;12.57;;;24.70;86.90;;;25.57;51.89;95404.47;5072170;28;20847;-56
2022/06/16 06:51:35;;;;;;;20.50;13.83;;;24.90;86.30;;;25.69;52.15;95401.06;5070382;28;20466;-55
2022/06/16 06:54:02;;;;;;;20.53;12.67;;;25.00;86.00;;;25.74;51.88;95402.03;5075457;28;20446;-54
2022/06/16 06:56:30;;;;;;;14.60;12.57;;;25.10;85.20;;;25.83;51.19;95404.47;5074921;28;20492;-55
2022/06/16 06:58:59;;;;;;;24.40;14.03;;;25.20;85.20;;;25.97;51.59;95400.56;5074520;28;20818;-55
2022/06/16 07:01:28;;;;;;;19.20;13.23;;;25.20;85.20;;;26.10;51.51;95400.47;5071648;28;20469;-56
2022/06/16 07:03:55;;;;;;;22.87;15.30;;;25.40;84.50;;;26.15;50.91;95405.19;5065410;28;20497;-53
2022/06/16 07:06:23;;;;;;;18.17;13.13;;;25.40;83.50;;;26.15;51.13;95396.25;5073344;28;20482;-55
2022/06/16 07:08:50;;;;;;;14.17;12.53;;;25.40;83.20;;;26.27;50.83;95399.84;5072946;28;20483;-56
2022/06/16 07:11:17;;;;;;;14.53;12.90;;;25.60;83.50;;;26.43;50.74;95396.56;5074274;28;20986;-53
2022/06/16 07:13:45;;;;;;;23.27;16.30;;;25.70;83.50;;;26.54;50.74;95405.78;5075478;28;20461;-56
2022/06/16 07:16:12;;;;;;;34.50;14.93;;;25.80;82.50;;;26.57;50.01;95399.91;5074444;28;20476;-56
2022/06/16 07:18:41;;;;;;;18.17;16.20;;;25.90;81.60;;;26.59;49.68;95388.91;5073987;28;20457;-55
2022/06/16 07:21:08;;;;;;;32.40;15.10;;;25.90;80.40;;;26.60;49.70;95390.53;5073552;28;20462;-56
2022/06/16 07:23:35;;;;;;;21.00;16.67;;;25.90;80.30;;;26.56;49.43;95392.06;5074851;28;21037;-56
2022/06/16 07:26:03;;;;;;;25.77;17.73;;;26.00;79.50;;;26.49;49.89;95392.13;5073618;28;20469;-55
2022/06/16 07:28:30;;;;;;;23.87;15.47;;;25.90;79.80;;;26.50;50.01;95384.88;5076603;28;20457;-53
2022/06/16 07:30:57;;;;;;;36.83;15.30;;;25.90;79.90;;;26.56;50.09;95394.75;5067860;28;20561;-56
2022/06/16 07:33:25;;;;;;;19.20;15.57;;;25.90;80.10;;;26.71;50.14;95392.50;5074410;28;20938;-55
2022/06/16 07:35:55;;;;;;;28.33;17.57;;;26.00;80.20;;;26.82;49.46;95397.13;5077845;28;20471;-56
2022/06/16 07:38:23;;;;;;;31.03;16.57;;;26.20;79.60;;;26.85;49.63;95385.03;5075013;28;20454;-55
2022/06/16 07:40:52;;;;;;;22.80;17.33;;;26.20;79.50;;;26.97;49.48;95383.22;5075172;28;21124;-54
2022/06/16 07:43:19;;;;;;;20.70;16.43;;;26.30;78.60;;;27.04;49.25;95383.09;5074839;28;20447;-55
2022/06/16 07:45:49;;;;;;;31.60;15.60;;;26.40;78.30;;;27.07;48.94;95377.25;5077044;28;20488;-56
2022/06/16 07:48:17;;;;;;;26.60;15.87;;;26.40;77.70;;;27.07;48.71;95382.63;5077804;28;20939;-55
2022/06/16 07:50:44;;;;;;;23.30;15.83;;;26.50;77.30;;;27.08;49.02;95378.06;5074841;28;20470;-54
2022/06/16 07:53:13;;;;;;;26.37;16.70;;;26.50;77.20;;;27.00;48.97;95381.91;5074901;28;20437;-56
2022/06/16 07:55:40;;;;;;;30.07;15.07;;;26.50;77.00;;;27.08;49.09;95384.28;5072976;28;20469;-56
2022/06/16 07:58:08;;;;;;;18.83;16.20;;;26.50;77.30;;;27.18;48.71;95394.53;5079092;28;20837;-56
2022/06/16 08:00:36;;;;;;;23.17;17.00;;;26.60;76.60;;;27.07;48.71;95388.03;5078291;28;20487;-57
2022/06/16 08:03:03;;;;;;;24.53;17.40;;;26.60;76.60;;;27.13;49.22;95389.81;5071109;28;20458;-56
2022/06/16 08:05:31;;;;;;;19.77;15.43;;;26.60;77.60;;;27.40;49.02;95386.72;5078372;28;20966;-53
2022/06/16 08:07:58;;;;;;;20.03;15.80;;;26.80;77.40;;;27.73;48.57;95385.31;5075199;28;20445;-56
2022/06/16 08:10:29;;;;;;;23.87;16.47;;;27.00;76.80;;;28.09;48.25;95386.19;5079785;28;20465;-54
2022/06/16 08:12:56;;;;;;;20.70;15.80;;;27.30;75.40;;;28.31;47.20;95386.38;5077808;28;20446;-53
2022/06/16 08:15:24;;;;;;;21.20;14.27;;;27.60;74.00;;;28.39;47.16;95380.56;5075037;28;20549;-55
2022/06/16 08:17:52;;;;;;;21.33;16.57;;;27.80;72.60;;;28.48;45.83;95394.56;5073304;28;20446;-56
2022/06/16 08:20:19;;;;;;;18.23;15.00;;;27.90;71.40;;;28.39;44.99;95388.69;5078083;28;20475;-54
2022/06/16 08:22:47;;;;;;;18.73;16.50;;;27.90;69.00;;;28.50;45.85;95384.31;5078174;28;20503;-54
2022/06/16 08:25:15;;;;;;;22.00;15.47;;;27.90;70.60;;;28.59;46.19;95382.91;5076347;28;20493;-54
2022/06/16 08:27:45;;;;;;;25.10;17.40;;;28.00;70.10;;;28.61;45.52;95388.91;5079968;28;20480;-56
2022/06/16 08:30:14;;;;;;;20.13;16.27;;;28.00;69.70;;;28.61;46.11;95386.22;5079203;28;20471;-56
2022/06/16 08:32:41;;;;;;;19.30;16.90;;;28.00;69.60;;;28.63;45.42;95382.41;5077074;28;20462;-56
2022/06/16 08:35:09;;;;;;;22.93;16.90;;;28.00;68.60;;;28.77;45.39;95379.19;5075837;28;20466;-56
2022/06/16 08:37:36;;;;;;;20.90;16.37;;;28.10;68.80;;;29.09;45.19;95381.38;5079736;28;20465;-56
2022/06/16 08:40:05;;;;;;;34.87;19.10;;;28.30;68.60;;;29.19;45.12;95378.03;5076919;28;20484;-57
2022/06/16 08:42:37;;;;;;;18.90;15.60;;;28.50;67.90;;;29.12;44.70;95380.06;5082060;28;20449;-56
2022/06/16 08:45:09;;;;;;;20.47;16.13;;;28.50;66.90;;;29.04;42.78;95377.78;5077262;28;20879;-54
2022/06/16 08:47:41;;;;;;;25.27;15.87;;;28.50;64.00;;;29.15;44.47;95374.97;5079970;28;20530;-56
2022/06/16 08:50:22;;;;;;;27.90;16.10;;;28.50;66.10;;;29.20;43.98;95376.19;5078548;28;20470;-56
2022/06/16 08:53:00;;;;;;;15.87;14.10;;;28.50;64.90;;;29.13;43.65;95382.53;5079242;28;20441;-57
2022/06/16 08:55:31;;;;;;;18.77;15.87;;;28.50;63.90;;;29.03;43.44;95376.13;5075072;28;20470;-55
2022/06/16 08:58:04;;;;;;;16.23;14.63;;;28.50;63.40;;;28.95;43.20;95378.19;5079767;28;20430;-54
2022/06/16 09:00:38;;;;;;;16.03;14.47;;;28.40;63.00;;;28.98;42.93;95368.72;5073574;28;20465;-55
2022/06/16 09:03:09;;;;;;;23.10;15.90;;;28.50;62.60;;;29.15;43.26;95368.75;5076268;28;20450;-55
2022/06/16 09:05:46;;;;;;;19.27;14.30;;;28.50;62.40;;;29.44;42.51;95372.25;5078675;28;20496;-57
2022/06/16 09:08:23;;;;;;;19.90;14.97;;;28.70;62.20;;;29.71;42.68;95370.75;5070277;28;20522;-56
2022/06/16 09:10:56;;;;;;;18.83;14.67;;;29.00;61.50;;;29.89;41.56;95367.00;5076814;28;20557;-56
2022/06/16 09:14:04;;;;;;;21.40;15.27;;;29.20;60.30;;;30.12;41.18;95371.38;5071242;28;20488;-53
2022/06/16 09:16:39;;;;;;;16.20;13.27;;;29.40;59.10;;;30.25;41.33;95375.59;5075151;28;20921;-56
2022/06/16 09:19:25;;;;;;;15.37;13.73;;;29.50;59.20;;;30.33;40.88;95364.31;5075700;28;20805;-55
2022/06/16 09:22:01;;;;;;;20.03;14.83;;;29.60;58.30;;;30.26;41.05;95361.78;5082795;28;20506;-56
2022/06/16 09:24:52;;;;;;;15.90;14.10;;;29.60;57.90;;;30.19;40.64;95350.28;5070440;28;20554;-56
2022/06/16 09:27:21;;;;;;;19.10;12.93;;;29.60;57.70;;;30.13;41.30;95351.28;5067431;28;20481;-54
2022/06/16 09:29:52;;;;;;;30.60;14.70;;;29.50;57.90;;;29.91;41.25;95349.38;5076055;28;21075;-56
2022/06/16 09:32:26;;;;;;;16.30;13.40;;;29.40;58.00;;;29.78;41.28;95347.00;5077802;28;20994;-55
2022/06/16 09:34:57;;;;;;;15.53;13.77;;;29.20;57.80;;;29.61;40.76;95339.72;5081455;28;20473;-55
2022/06/16 09:37:27;;;;;;;18.20;14.07;;;29.10;57.60;;;29.46;41.51;95336.75;5078126;28;20443;-55
2022/06/16 09:39:58;;;;;;;17.77;13.00;;;28.90;58.10;;;29.34;41.23;95339.56;5077480;28;20485;-55
2022/06/16 09:42:35;;;;;;;13.90;12.27;;;28.80;58.30;;;29.24;42.35;95337.50;5071833;28;21010;-56
2022/06/16 09:45:19;;;;;;;14.47;13.00;;;28.70;58.50;;;29.31;40.87;95330.03;5064892;28;20496;-55
2022/06/16 09:47:53;;;;;;;18.97;13.23;;;28.70;58.40;;;29.59;41.50;95331.00;5064610;28;20965;-55
2022/06/16 09:50:30;;;;;;;18.77;13.10;;;28.90;58.80;;;29.94;41.04;95331.78;5062192;28;20489;-55
2022/06/16 09:53:03;;;;;;;18.63;12.70;;;29.20;58.10;;;30.32;40.17;95332.78;5064996;28;20439;-57
2022/06/16 09:55:37;;;;;;;16.30;11.90;;;29.60;57.20;;;30.58;39.93;95328.50;5066019;28;20462;-55
2022/06/16 09:58:09;;;;;;;15.83;12.37;;;29.80;56.20;;;30.66;39.14;95328.09;5065761;28;20614;-56
2022/06/16 10:00:36;;;;;;;13.50;11.53;;;30.00;54.40;;;30.73;39.08;95325.97;5065515;28;21006;-55
2022/06/16 10:03:17;;;;;;;18.90;12.27;;;30.10;55.00;;;30.84;38.75;95323.34;5068438;28;20219;-55
2022/06/16 10:05:57;;;;;;;21.67;12.93;;;30.10;54.20;;;30.94;38.20;95328.91;5065142;28;20236;-56
2022/06/16 10:08:29;;;;;;;14.80;12.97;;;30.30;54.40;;;31.10;37.57;95317.09;5060313;28;20192;-55
2022/06/16 10:10:59;;;;;;;21.47;10.73;;;30.40;53.20;;;31.30;38.17;95326.50;5066421;28;20285;-56
2022/06/16 10:13:29;;;;;;;14.47;10.53;;;30.60;53.50;;;31.47;36.74;95320.94;5063708;28;20212;-56
2022/06/16 10:16:02;;;;;;;12.07;10.97;;;30.80;52.90;;;31.57;36.60;95317.50;5067651;28;20220;-57
2022/06/16 10:18:30;;;;;;;12.10;10.87;;;30.90;51.60;;;31.62;35.95;95322.94;5063723;28;20196;-55
2022/06/16 10:20:58;;;;;;;18.23;11.43;;;30.90;50.90;;;31.69;36.41;95312.69;5068095;28;20231;-55
2022/06/16 10:23:28;;;;;;;15.43;12.77;;;31.00;50.80;;;31.76;35.69;95313.28;5067770;28;20200;-54
2022/06/16 10:25:57;;;;;;;12.40;11.10;;;31.10;50.80;;;31.88;36.45;95309.53;5063890;28;20752;-56
2022/06/16 10:28:29;;;;;;;13.13;11.80;;;31.20;50.90;;;31.96;35.91;95306.28;5066915;28;20220;-56
2022/06/16 10:30:56;;;;;;;13.13;11.25;;;31.30;50.20;;;32.01;36.34;95303.63;5068418;28;20220;-53
2022/06/16 10:33:25;;;;;;;16.47;10.87;;;31.30;50.50;;;32.09;36.36;95310.44;5063911;28;20254;-54
2022/06/16 10:35:56;;;;;;;13.10;10.40;;;31.40;50.50;;;32.13;35.25;95298.81;5071684;28;20713;-56
2022/06/16 10:38:32;;;;;;;12.57;10.43;;;31.50;49.80;;;31.98;34.96;95287.81;5067657;28;20203;-54
2022/06/16 10:41:01;;;;;;;12.40;11.10;;;31.40;48.60;;;31.78;35.40;95294.78;5068475;28;20220;-55